sensor_id;sensor_type;location;lat;lon;timestamp;P1;durP1;ratioP1;P2;durP2;ratioP2
5684;SDS011;2865;53.114;9.130;2022-09-03T00:01:56;2.50;;;1.73;;
5684;SDS011;2865;53.114;9.130;2022-09-03T00:04:21;3.40;;;1.70;;
5684;SDS011;2865;53.114;9.130;2022-09-03T00:06:47;1.97;;;1.80;;
5684;SDS011;2865;53.114;9.130;2022-09-03T00:09:13;5.00;;;1.70;;
5684;SDS011;2865;53.114;9.130;2022-09-03T00:14:11;1.67;;;1.57;;
5684;SDS011;2865;53.114;9.130;2022-09-03T00:16:43;5.10;;;1.60;;
5684;SDS011;2865;53.114;9.130;2022-09-03T00:19:21;2.50;;;1.80;;
5684;SDS011;2865;53.114;9.130;2022-09-03T00:21:47;1.97;;;1.83;;
5684;SDS011;2865;53.114;9.130;2022-09-03T00:24:12;2.00;;;1.80;;
5684;SDS011;2865;53.114;9.130;2022-09-03T00:26:37;1.90;;;1.80;;
5684;SDS011;2865;53.114;9.130;2022-09-03T00:29:06;1.80;;;1.70;;
5684;SDS011;2865;53.114;9.130;2022-09-03T00:31:35;2.00;;;1.90;;
5684;SDS011;2865;53.114;9.130;2022-09-03T00:34:02;1.80;;;1.70;;
5684;SDS011;2865;53.114;9.130;2022-09-03T00:36:33;1.57;;;1.47;;
5684;SDS011;2865;53.114;9.130;2022-09-03T00:38:57;4.00;;;2.20;;
5684;SDS011;2865;53.114;9.130;2022-09-03T00:43:59;2.30;;;2.10;;
5684;SDS011;2865;53.114;9.130;2022-09-03T00:46:41;3.00;;;1.70;;
5684;SDS011;2865;53.114;9.130;2022-09-03T00:52:06;8.10;;;2.37;;
5684;SDS011;2865;53.114;9.130;2022-09-03T00:55:11;1.83;;;1.73;;
5684;SDS011;2865;53.114;9.130;2022-09-03T00:57:22;4.00;;;2.10;;
5684;SDS011;2865;53.114;9.130;2022-09-03T01:02:35;1.60;;;1.50;;
5684;SDS011;2865;53.114;9.130;2022-09-03T01:07:45;1.70;;;1.60;;
5684;SDS011;2865;53.114;9.130;2022-09-03T01:10:17;2.23;;;2.10;;
5684;SDS011;2865;53.114;9.130;2022-09-03T01:12:57;2.90;;;2.10;;
5684;SDS011;2865;53.114;9.130;2022-09-03T01:15:28;1.83;;;1.73;;
5684;SDS011;2865;53.114;9.130;2022-09-03T01:18:00;1.70;;;1.60;;
5684;SDS011;2865;53.114;9.130;2022-09-03T01:20:36;1.93;;;1.83;;
5684;SDS011;2865;53.114;9.130;2022-09-03T01:29:00;1.70;;;1.60;;
5684;SDS011;2865;53.114;9.130;2022-09-03T01:31:28;10.73;;;2.30;;
5684;SDS011;2865;53.114;9.130;2022-09-03T01:34:02;2.50;;;2.00;;
5684;SDS011;2865;53.114;9.130;2022-09-03T01:38:59;2.53;;;2.20;;
5684;SDS011;2865;53.114;9.130;2022-09-03T01:41:30;1.90;;;1.80;;
5684;SDS011;2865;53.114;9.130;2022-09-03T01:47:04;1.90;;;1.70;;
5684;SDS011;2865;53.114;9.130;2022-09-03T01:49:33;2.27;;;1.83;;
5684;SDS011;2865;53.114;9.130;2022-09-03T01:52:01;1.93;;;1.70;;
5684;SDS011;2865;53.114;9.130;2022-09-03T01:54:33;2.70;;;2.07;;
5684;SDS011;2865;53.114;9.130;2022-09-03T01:59:50;1.80;;;1.70;;
5684;SDS011;2865;53.114;9.130;2022-09-03T02:02:20;2.10;;;2.00;;
5684;SDS011;2865;53.114;9.130;2022-09-03T02:07:22;2.53;;;2.10;;
5684;SDS011;2865;53.114;9.130;2022-09-03T02:09:48;2.10;;;1.90;;
5684;SDS011;2865;53.114;9.130;2022-09-03T02:12:14;2.10;;;2.00;;
5684;SDS011;2865;53.114;9.130;2022-09-03T02:14:39;1.83;;;1.73;;
5684;SDS011;2865;53.114;9.130;2022-09-03T02:17:04;2.40;;;1.80;;
5684;SDS011;2865;53.114;9.130;2022-09-03T02:19:29;1.70;;;1.60;;
5684;SDS011;2865;53.114;9.130;2022-09-03T02:21:55;1.80;;;1.70;;
5684;SDS011;2865;53.114;9.130;2022-09-03T02:24:21;3.13;;;1.90;;
5684;SDS011;2865;53.114;9.130;2022-09-03T02:26:46;2.20;;;2.07;;
5684;SDS011;2865;53.114;9.130;2022-09-03T02:29:12;3.27;;;2.00;;
5684;SDS011;2865;53.114;9.130;2022-09-03T02:31:37;1.80;;;1.70;;
5684;SDS011;2865;53.114;9.130;2022-09-03T02:34:02;2.27;;;1.97;;
5684;SDS011;2865;53.114;9.130;2022-09-03T02:36:29;2.17;;;2.03;;
5684;SDS011;2865;53.114;9.130;2022-09-03T02:38:55;1.83;;;1.73;;
5684;SDS011;2865;53.114;9.130;2022-09-03T02:41:20;1.90;;;1.80;;
5684;SDS011;2865;53.114;9.130;2022-09-03T02:43:55;3.00;;;2.10;;
5684;SDS011;2865;53.114;9.130;2022-09-03T02:46:23;2.20;;;1.80;;
5684;SDS011;2865;53.114;9.130;2022-09-03T02:48:48;2.03;;;1.83;;
5684;SDS011;2865;53.114;9.130;2022-09-03T02:51:13;1.90;;;1.77;;
5684;SDS011;2865;53.114;9.130;2022-09-03T02:53:39;1.80;;;1.70;;
5684;SDS011;2865;53.114;9.130;2022-09-03T02:56:05;1.60;;;1.50;;
5684;SDS011;2865;53.114;9.130;2022-09-03T02:58:30;1.93;;;1.83;;
5684;SDS011;2865;53.114;9.130;2022-09-03T03:00:56;1.87;;;1.77;;
5684;SDS011;2865;53.114;9.130;2022-09-03T03:03:21;1.80;;;1.70;;
5684;SDS011;2865;53.114;9.130;2022-09-03T03:05:49;2.20;;;1.80;;
5684;SDS011;2865;53.114;9.130;2022-09-03T03:08:15;2.00;;;1.90;;
5684;SDS011;2865;53.114;9.130;2022-09-03T03:10:40;2.17;;;1.83;;
5684;SDS011;2865;53.114;9.130;2022-09-03T03:13:06;2.03;;;1.93;;
5684;SDS011;2865;53.114;9.130;2022-09-03T03:15:31;2.77;;;1.90;;
5684;SDS011;2865;53.114;9.130;2022-09-03T03:17:57;2.10;;;2.00;;
5684;SDS011;2865;53.114;9.130;2022-09-03T03:20:22;17.53;;;3.23;;
5684;SDS011;2865;53.114;9.130;2022-09-03T03:22:47;1.73;;;1.63;;
5684;SDS011;2865;53.114;9.130;2022-09-03T03:25:13;4.60;;;1.97;;
5684;SDS011;2865;53.114;9.130;2022-09-03T03:27:38;2.20;;;2.00;;
5684;SDS011;2865;53.114;9.130;2022-09-03T03:30:04;2.80;;;1.80;;
5684;SDS011;2865;53.114;9.130;2022-09-03T03:32:31;2.40;;;1.90;;
5684;SDS011;2865;53.114;9.130;2022-09-03T03:34:56;2.00;;;1.90;;
5684;SDS011;2865;53.114;9.130;2022-09-03T03:37:21;1.83;;;1.73;;
5684;SDS011;2865;53.114;9.130;2022-09-03T03:39:47;1.90;;;1.80;;
5684;SDS011;2865;53.114;9.130;2022-09-03T03:42:12;2.17;;;2.07;;
5684;SDS011;2865;53.114;9.130;2022-09-03T03:44:38;4.53;;;1.87;;
5684;SDS011;2865;53.114;9.130;2022-09-03T03:47:03;1.93;;;1.83;;
5684;SDS011;2865;53.114;9.130;2022-09-03T03:49:29;1.90;;;1.80;;
5684;SDS011;2865;53.114;9.130;2022-09-03T03:51:54;2.63;;;1.70;;
5684;SDS011;2865;53.114;9.130;2022-09-03T03:54:19;2.30;;;1.70;;
5684;SDS011;2865;53.114;9.130;2022-09-03T03:56:45;2.40;;;2.20;;
5684;SDS011;2865;53.114;9.130;2022-09-03T03:59:10;2.80;;;1.67;;
5684;SDS011;2865;53.114;9.130;2022-09-03T04:01:35;1.70;;;1.60;;
5684;SDS011;2865;53.114;9.130;2022-09-03T04:04:01;1.70;;;1.60;;
5684;SDS011;2865;53.114;9.130;2022-09-03T04:06:27;1.73;;;1.63;;
5684;SDS011;2865;53.114;9.130;2022-09-03T04:08:53;1.87;;;1.77;;
5684;SDS011;2865;53.114;9.130;2022-09-03T04:11:19;2.17;;;2.00;;
5684;SDS011;2865;53.114;9.130;2022-09-03T04:13:44;2.10;;;1.80;;
5684;SDS011;2865;53.114;9.130;2022-09-03T04:16:10;1.80;;;1.70;;
5684;SDS011;2865;53.114;9.130;2022-09-03T04:18:36;2.30;;;1.80;;
5684;SDS011;2865;53.114;9.130;2022-09-03T04:21:02;5.60;;;1.77;;
5684;SDS011;2865;53.114;9.130;2022-09-03T04:23:26;2.33;;;2.17;;
5684;SDS011;2865;53.114;9.130;2022-09-03T04:25:52;2.73;;;1.50;;
5684;SDS011;2865;53.114;9.130;2022-09-03T04:28:17;2.87;;;2.37;;
5684;SDS011;2865;53.114;9.130;2022-09-03T04:30:43;2.00;;;1.90;;
5684;SDS011;2865;53.114;9.130;2022-09-03T04:33:08;1.70;;;1.60;;
5684;SDS011;2865;53.114;9.130;2022-09-03T04:35:33;1.90;;;1.80;;
5684;SDS011;2865;53.114;9.130;2022-09-03T04:37:59;2.17;;;1.97;;
5684;SDS011;2865;53.114;9.130;2022-09-03T04:40:24;1.90;;;1.80;;
5684;SDS011;2865;53.114;9.130;2022-09-03T04:42:50;1.63;;;1.53;;
5684;SDS011;2865;53.114;9.130;2022-09-03T04:45:15;5.90;;;1.83;;
5684;SDS011;2865;53.114;9.130;2022-09-03T04:47:40;2.40;;;2.20;;
5684;SDS011;2865;53.114;9.130;2022-09-03T04:50:06;3.00;;;2.10;;
5684;SDS011;2865;53.114;9.130;2022-09-03T04:52:32;6.17;;;2.10;;
5684;SDS011;2865;53.114;9.130;2022-09-03T04:54:58;1.93;;;1.83;;
5684;SDS011;2865;53.114;9.130;2022-09-03T04:57:23;1.70;;;1.60;;
5684;SDS011;2865;53.114;9.130;2022-09-03T04:59:49;1.60;;;1.50;;
5684;SDS011;2865;53.114;9.130;2022-09-03T05:02:14;4.63;;;1.50;;
5684;SDS011;2865;53.114;9.130;2022-09-03T05:04:40;5.83;;;1.80;;
5684;SDS011;2865;53.114;9.130;2022-09-03T05:07:05;1.47;;;1.37;;
5684;SDS011;2865;53.114;9.130;2022-09-03T05:09:30;2.20;;;2.00;;
5684;SDS011;2865;53.114;9.130;2022-09-03T05:11:56;1.80;;;1.70;;
5684;SDS011;2865;53.114;9.130;2022-09-03T05:14:21;2.03;;;1.73;;
5684;SDS011;2865;53.114;9.130;2022-09-03T05:16:47;1.90;;;1.70;;
5684;SDS011;2865;53.114;9.130;2022-09-03T05:19:12;1.60;;;1.50;;
5684;SDS011;2865;53.114;9.130;2022-09-03T05:21:38;3.17;;;1.40;;
5684;SDS011;2865;53.114;9.130;2022-09-03T05:24:04;2.03;;;1.80;;
5684;SDS011;2865;53.114;9.130;2022-09-03T05:26:30;4.00;;;1.73;;
5684;SDS011;2865;53.114;9.130;2022-09-03T05:28:55;2.30;;;1.47;;
5684;SDS011;2865;53.114;9.130;2022-09-03T05:31:20;1.73;;;1.63;;
5684;SDS011;2865;53.114;9.130;2022-09-03T05:33:46;2.07;;;1.97;;
5684;SDS011;2865;53.114;9.130;2022-09-03T05:36:12;2.53;;;2.10;;
5684;SDS011;2865;53.114;9.130;2022-09-03T05:38:38;6.63;;;1.80;;
5684;SDS011;2865;53.114;9.130;2022-09-03T05:41:05;3.80;;;1.70;;
5684;SDS011;2865;53.114;9.130;2022-09-03T05:43:30;1.63;;;1.53;;
5684;SDS011;2865;53.114;9.130;2022-09-03T05:45:58;1.90;;;1.80;;
5684;SDS011;2865;53.114;9.130;2022-09-03T05:48:24;2.30;;;1.70;;
5684;SDS011;2865;53.114;9.130;2022-09-03T05:50:57;3.80;;;1.97;;
5684;SDS011;2865;53.114;9.130;2022-09-03T05:53:15;2.27;;;1.63;;
5684;SDS011;2865;53.114;9.130;2022-09-03T05:55:40;1.83;;;1.73;;
5684;SDS011;2865;53.114;9.130;2022-09-03T05:58:06;1.60;;;1.50;;
5684;SDS011;2865;53.114;9.130;2022-09-03T06:00:31;1.93;;;1.83;;
5684;SDS011;2865;53.114;9.130;2022-09-03T06:02:57;2.33;;;2.13;;
5684;SDS011;2865;53.114;9.130;2022-09-03T06:05:22;1.93;;;1.83;;
5684;SDS011;2865;53.114;9.130;2022-09-03T06:07:47;3.40;;;2.43;;
5684;SDS011;2865;53.114;9.130;2022-09-03T06:10:13;2.10;;;2.00;;
5684;SDS011;2865;53.114;9.130;2022-09-03T06:12:38;1.57;;;1.47;;
5684;SDS011;2865;53.114;9.130;2022-09-03T06:15:04;1.97;;;1.67;;
5684;SDS011;2865;53.114;9.130;2022-09-03T06:17:30;2.20;;;2.00;;
5684;SDS011;2865;53.114;9.130;2022-09-03T06:19:55;1.63;;;1.53;;
5684;SDS011;2865;53.114;9.130;2022-09-03T06:22:21;2.03;;;1.83;;
5684;SDS011;2865;53.114;9.130;2022-09-03T06:24:46;1.70;;;1.60;;
5684;SDS011;2865;53.114;9.130;2022-09-03T06:27:12;1.60;;;1.50;;
5684;SDS011;2865;53.114;9.130;2022-09-03T06:29:37;1.50;;;1.40;;
5684;SDS011;2865;53.114;9.130;2022-09-03T06:32:03;4.50;;;2.23;;
5684;SDS011;2865;53.114;9.130;2022-09-03T06:34:28;2.00;;;1.70;;
5684;SDS011;2865;53.114;9.130;2022-09-03T06:36:54;2.10;;;1.70;;
5684;SDS011;2865;53.114;9.130;2022-09-03T06:39:19;1.70;;;1.60;;
5684;SDS011;2865;53.114;9.130;2022-09-03T06:41:44;1.90;;;1.80;;
5684;SDS011;2865;53.114;9.130;2022-09-03T06:44:10;6.53;;;1.70;;
5684;SDS011;2865;53.114;9.130;2022-09-03T06:46:36;3.20;;;2.00;;
5684;SDS011;2865;53.114;9.130;2022-09-03T06:49:01;7.13;;;1.70;;
5684;SDS011;2865;53.114;9.130;2022-09-03T06:51:28;1.50;;;1.40;;
5684;SDS011;2865;53.114;9.130;2022-09-03T06:53:53;3.50;;;1.40;;
5684;SDS011;2865;53.114;9.130;2022-09-03T06:56:18;1.43;;;1.33;;
5684;SDS011;2865;53.114;9.130;2022-09-03T06:58:44;1.50;;;1.40;;
5684;SDS011;2865;53.114;9.130;2022-09-03T07:01:13;1.80;;;1.50;;
5684;SDS011;2865;53.114;9.130;2022-09-03T07:03:40;2.90;;;1.77;;
5684;SDS011;2865;53.114;9.130;2022-09-03T07:06:06;1.67;;;1.57;;
5684;SDS011;2865;53.114;9.130;2022-09-03T07:08:31;1.97;;;1.60;;
5684;SDS011;2865;53.114;9.130;2022-09-03T07:10:58;2.37;;;1.80;;
5684;SDS011;2865;53.114;9.130;2022-09-03T07:13:23;1.60;;;1.50;;
5684;SDS011;2865;53.114;9.130;2022-09-03T07:15:56;2.53;;;1.40;;
5684;SDS011;2865;53.114;9.130;2022-09-03T07:18:14;1.57;;;1.47;;
5684;SDS011;2865;53.114;9.130;2022-09-03T07:20:39;2.10;;;1.70;;
5684;SDS011;2865;53.114;9.130;2022-09-03T07:23:05;4.00;;;1.53;;
5684;SDS011;2865;53.114;9.130;2022-09-03T07:25:30;1.43;;;1.33;;
5684;SDS011;2865;53.114;9.130;2022-09-03T07:27:56;1.73;;;1.57;;
5684;SDS011;2865;53.114;9.130;2022-09-03T07:30:21;1.80;;;1.70;;
5684;SDS011;2865;53.114;9.130;2022-09-03T07:32:47;4.60;;;1.50;;
5684;SDS011;2865;53.114;9.130;2022-09-03T07:35:12;4.50;;;1.60;;
5684;SDS011;2865;53.114;9.130;2022-09-03T07:37:40;1.47;;;1.37;;
5684;SDS011;2865;53.114;9.130;2022-09-03T07:40:05;5.53;;;1.63;;
5684;SDS011;2865;53.114;9.130;2022-09-03T07:42:32;3.10;;;1.50;;
5684;SDS011;2865;53.114;9.130;2022-09-03T07:44:58;1.70;;;1.60;;
5684;SDS011;2865;53.114;9.130;2022-09-03T07:47:23;2.67;;;1.73;;
5684;SDS011;2865;53.114;9.130;2022-09-03T07:49:49;1.40;;;1.30;;
5684;SDS011;2865;53.114;9.130;2022-09-03T07:52:14;2.93;;;1.83;;
5684;SDS011;2865;53.114;9.130;2022-09-03T07:54:40;5.40;;;1.97;;
5684;SDS011;2865;53.114;9.130;2022-09-03T07:57:05;6.93;;;1.70;;
5684;SDS011;2865;53.114;9.130;2022-09-03T07:59:30;10.63;;;1.90;;
5684;SDS011;2865;53.114;9.130;2022-09-03T08:01:56;2.83;;;1.30;;
5684;SDS011;2865;53.114;9.130;2022-09-03T08:04:21;1.57;;;1.47;;
5684;SDS011;2865;53.114;9.130;2022-09-03T08:06:47;4.90;;;1.63;;
5684;SDS011;2865;53.114;9.130;2022-09-03T08:09:12;2.63;;;1.30;;
5684;SDS011;2865;53.114;9.130;2022-09-03T08:11:39;1.70;;;1.60;;
5684;SDS011;2865;53.114;9.130;2022-09-03T08:14:04;1.60;;;1.50;;
5684;SDS011;2865;53.114;9.130;2022-09-03T08:16:29;1.33;;;1.23;;
5684;SDS011;2865;53.114;9.130;2022-09-03T08:18:54;1.40;;;1.30;;
5684;SDS011;2865;53.114;9.130;2022-09-03T08:21:20;2.10;;;1.90;;
5684;SDS011;2865;53.114;9.130;2022-09-03T08:23:46;3.63;;;1.60;;
5684;SDS011;2865;53.114;9.130;2022-09-03T08:26:11;1.30;;;1.13;;
5684;SDS011;2865;53.114;9.130;2022-09-03T08:28:36;1.40;;;1.30;;
5684;SDS011;2865;53.114;9.130;2022-09-03T08:31:04;1.40;;;1.30;;
5684;SDS011;2865;53.114;9.130;2022-09-03T08:33:29;2.03;;;1.20;;
5684;SDS011;2865;53.114;9.130;2022-09-03T08:36:00;1.93;;;1.20;;
5684;SDS011;2865;53.114;9.130;2022-09-03T08:38:27;2.03;;;1.40;;
5684;SDS011;2865;53.114;9.130;2022-09-03T08:40:52;1.43;;;1.30;;
5684;SDS011;2865;53.114;9.130;2022-09-03T08:43:18;1.67;;;1.40;;
5684;SDS011;2865;53.114;9.130;2022-09-03T08:45:43;3.83;;;1.77;;
5684;SDS011;2865;53.114;9.130;2022-09-03T08:48:09;1.90;;;1.63;;
5684;SDS011;2865;53.114;9.130;2022-09-03T08:50:37;1.37;;;1.23;;
5684;SDS011;2865;53.114;9.130;2022-09-03T08:55:41;2.80;;;1.80;;
5684;SDS011;2865;53.114;9.130;2022-09-03T08:58:06;3.73;;;1.50;;
5684;SDS011;2865;53.114;9.130;2022-09-03T09:06:20;1.83;;;1.20;;
5684;SDS011;2865;53.114;9.130;2022-09-03T09:09:05;2.50;;;1.23;;
5684;SDS011;2865;53.114;9.130;2022-09-03T09:11:57;1.83;;;1.50;;
5684;SDS011;2865;53.114;9.130;2022-09-03T09:14:35;2.40;;;1.20;;
5684;SDS011;2865;53.114;9.130;2022-09-03T09:17:07;4.03;;;1.20;;
5684;SDS011;2865;53.114;9.130;2022-09-03T09:19:35;1.77;;;1.10;;
5684;SDS011;2865;53.114;9.130;2022-09-03T09:22:02;2.90;;;1.40;;
5684;SDS011;2865;53.114;9.130;2022-09-03T09:24:31;1.33;;;1.10;;
5684;SDS011;2865;53.114;9.130;2022-09-03T09:26:57;1.40;;;1.27;;
5684;SDS011;2865;53.114;9.130;2022-09-03T09:29:20;2.93;;;1.40;;
5684;SDS011;2865;53.114;9.130;2022-09-03T09:31:45;2.87;;;1.40;;
5684;SDS011;2865;53.114;9.130;2022-09-03T09:34:11;2.37;;;1.40;;
5684;SDS011;2865;53.114;9.130;2022-09-03T09:36:42;2.60;;;1.40;;
5684;SDS011;2865;53.114;9.130;2022-09-03T09:39:08;1.93;;;1.30;;
5684;SDS011;2865;53.114;9.130;2022-09-03T09:41:32;3.57;;;1.30;;
5684;SDS011;2865;53.114;9.130;2022-09-03T09:43:59;1.30;;;1.03;;
5684;SDS011;2865;53.114;9.130;2022-09-03T09:46:25;4.13;;;1.20;;
5684;SDS011;2865;53.114;9.130;2022-09-03T09:48:50;2.40;;;1.40;;
5684;SDS011;2865;53.114;9.130;2022-09-03T09:51:19;2.10;;;1.43;;
5684;SDS011;2865;53.114;9.130;2022-09-03T09:53:43;4.27;;;1.50;;
5684;SDS011;2865;53.114;9.130;2022-09-03T09:56:19;3.10;;;1.10;;
5684;SDS011;2865;53.114;9.130;2022-09-03T09:58:34;5.43;;;1.60;;
5684;SDS011;2865;53.114;9.130;2022-09-03T10:01:02;5.23;;;1.30;;
5684;SDS011;2865;53.114;9.130;2022-09-03T10:03:26;2.80;;;1.13;;
5684;SDS011;2865;53.114;9.130;2022-09-03T10:06:09;3.00;;;1.50;;
5684;SDS011;2865;53.114;9.130;2022-09-03T10:08:40;4.13;;;1.40;;
5684;SDS011;2865;53.114;9.130;2022-09-03T10:11:05;4.50;;;1.30;;
5684;SDS011;2865;53.114;9.130;2022-09-03T10:13:34;1.40;;;1.30;;
5684;SDS011;2865;53.114;9.130;2022-09-03T10:16:00;1.33;;;1.23;;
5684;SDS011;2865;53.114;9.130;2022-09-03T10:18:37;3.63;;;1.23;;
5684;SDS011;2865;53.114;9.130;2022-09-03T10:21:10;3.80;;;1.20;;
5684;SDS011;2865;53.114;9.130;2022-09-03T10:23:34;1.60;;;1.50;;
5684;SDS011;2865;53.114;9.130;2022-09-03T10:26:09;1.37;;;1.27;;
5684;SDS011;2865;53.114;9.130;2022-09-03T10:28:36;1.47;;;1.10;;
5684;SDS011;2865;53.114;9.130;2022-09-03T10:31:10;2.97;;;1.20;;
5684;SDS011;2865;53.114;9.130;2022-09-03T10:33:51;2.47;;;1.30;;
5684;SDS011;2865;53.114;9.130;2022-09-03T10:36:24;7.23;;;1.67;;
5684;SDS011;2865;53.114;9.130;2022-09-03T10:38:56;1.77;;;1.17;;
5684;SDS011;2865;53.114;9.130;2022-09-03T10:41:27;1.37;;;1.27;;
5684;SDS011;2865;53.114;9.130;2022-09-03T10:43:55;2.67;;;1.30;;
5684;SDS011;2865;53.114;9.130;2022-09-03T10:46:26;5.40;;;1.20;;
5684;SDS011;2865;53.114;9.130;2022-09-03T10:48:57;1.23;;;1.13;;
5684;SDS011;2865;53.114;9.130;2022-09-03T10:51:23;3.37;;;1.00;;
5684;SDS011;2865;53.114;9.130;2022-09-03T10:56:31;2.20;;;1.07;;
5684;SDS011;2865;53.114;9.130;2022-09-03T10:59:02;2.27;;;1.20;;
5684;SDS011;2865;53.114;9.130;2022-09-03T11:01:27;4.70;;;1.17;;
5684;SDS011;2865;53.114;9.130;2022-09-03T11:03:55;6.73;;;1.53;;
5684;SDS011;2865;53.114;9.130;2022-09-03T11:06:25;1.93;;;1.17;;
5684;SDS011;2865;53.114;9.130;2022-09-03T11:08:52;2.27;;;1.10;;
5684;SDS011;2865;53.114;9.130;2022-09-03T11:11:22;2.67;;;1.20;;
5684;SDS011;2865;53.114;9.130;2022-09-03T11:13:48;4.17;;;1.10;;
5684;SDS011;2865;53.114;9.130;2022-09-03T11:16:17;2.03;;;1.33;;
5684;SDS011;2865;53.114;9.130;2022-09-03T11:18:50;1.20;;;1.10;;
5684;SDS011;2865;53.114;9.130;2022-09-03T11:21:15;1.80;;;1.33;;
5684;SDS011;2865;53.114;9.130;2022-09-03T11:23:41;1.20;;;1.10;;
5684;SDS011;2865;53.114;9.130;2022-09-03T11:26:06;1.33;;;1.00;;
5684;SDS011;2865;53.114;9.130;2022-09-03T11:28:36;2.33;;;1.47;;
5684;SDS011;2865;53.114;9.130;2022-09-03T11:31:09;3.00;;;1.13;;
5684;SDS011;2865;53.114;9.130;2022-09-03T11:33:37;1.07;;;0.97;;
5684;SDS011;2865;53.114;9.130;2022-09-03T11:36:04;3.63;;;1.13;;
5684;SDS011;2865;53.114;9.130;2022-09-03T11:38:28;3.80;;;1.23;;
5684;SDS011;2865;53.114;9.130;2022-09-03T11:40:56;2.53;;;1.20;;
5684;SDS011;2865;53.114;9.130;2022-09-03T11:43:30;2.50;;;1.03;;
5684;SDS011;2865;53.114;9.130;2022-09-03T11:48:32;1.27;;;1.17;;
5684;SDS011;2865;53.114;9.130;2022-09-03T11:50:56;4.97;;;1.17;;
5684;SDS011;2865;53.114;9.130;2022-09-03T11:53:24;1.33;;;1.17;;
5684;SDS011;2865;53.114;9.130;2022-09-03T11:55:52;1.63;;;1.40;;
5684;SDS011;2865;53.114;9.130;2022-09-03T11:58:19;6.17;;;1.20;;
5684;SDS011;2865;53.114;9.130;2022-09-03T12:00:43;2.20;;;1.13;;
5684;SDS011;2865;53.114;9.130;2022-09-03T12:03:11;1.10;;;1.00;;
5684;SDS011;2865;53.114;9.130;2022-09-03T12:05:41;4.93;;;1.27;;
5684;SDS011;2865;53.114;9.130;2022-09-03T12:08:10;1.27;;;1.17;;
5684;SDS011;2865;53.114;9.130;2022-09-03T12:10:40;4.37;;;1.50;;
5684;SDS011;2865;53.114;9.130;2022-09-03T12:13:07;3.23;;;1.10;;
5684;SDS011;2865;53.114;9.130;2022-09-03T12:18:21;2.97;;;1.03;;
5684;SDS011;2865;53.114;9.130;2022-09-03T12:21:03;1.17;;;0.90;;
5684;SDS011;2865;53.114;9.130;2022-09-03T12:23:32;1.20;;;1.10;;
5684;SDS011;2865;53.114;9.130;2022-09-03T12:26:06;1.70;;;1.47;;
5684;SDS011;2865;53.114;9.130;2022-09-03T12:28:35;1.13;;;1.03;;
5684;SDS011;2865;53.114;9.130;2022-09-03T12:31:06;3.60;;;1.37;;
5684;SDS011;2865;53.114;9.130;2022-09-03T12:33:30;2.37;;;0.83;;
5684;SDS011;2865;53.114;9.130;2022-09-03T12:35:57;0.80;;;0.80;;
5684;SDS011;2865;53.114;9.130;2022-09-03T12:38:23;2.20;;;1.20;;
5684;SDS011;2865;53.114;9.130;2022-09-03T12:40:48;1.57;;;1.47;;
5684;SDS011;2865;53.114;9.130;2022-09-03T12:43:14;2.00;;;1.20;;
5684;SDS011;2865;53.114;9.130;2022-09-03T12:45:42;1.63;;;1.00;;
5684;SDS011;2865;53.114;9.130;2022-09-03T12:48:11;1.83;;;1.30;;
5684;SDS011;2865;53.114;9.130;2022-09-03T12:50:32;3.03;;;1.30;;
5684;SDS011;2865;53.114;9.130;2022-09-03T12:52:59;2.80;;;1.17;;
5684;SDS011;2865;53.114;9.130;2022-09-03T12:55:31;3.13;;;1.70;;
5684;SDS011;2865;53.114;9.130;2022-09-03T12:58:19;1.43;;;1.27;;
5684;SDS011;2865;53.114;9.130;2022-09-03T13:00:56;1.23;;;1.13;;
5684;SDS011;2865;53.114;9.130;2022-09-03T13:03:22;5.80;;;1.30;;
5684;SDS011;2865;53.114;9.130;2022-09-03T13:05:56;3.73;;;1.30;;
5684;SDS011;2865;53.114;9.130;2022-09-03T13:08:21;1.30;;;1.20;;
5684;SDS011;2865;53.114;9.130;2022-09-03T13:10:48;1.73;;;0.93;;
5684;SDS011;2865;53.114;9.130;2022-09-03T13:18:26;1.17;;;1.07;;
5684;SDS011;2865;53.114;9.130;2022-09-03T13:23:58;6.87;;;1.30;;
5684;SDS011;2865;53.114;9.130;2022-09-03T13:26:31;2.10;;;1.33;;
5684;SDS011;2865;53.114;9.130;2022-09-03T13:29:04;5.17;;;1.47;;
5684;SDS011;2865;53.114;9.130;2022-09-03T13:31:40;2.33;;;1.10;;
5684;SDS011;2865;53.114;9.130;2022-09-03T13:34:05;2.67;;;1.70;;
5684;SDS011;2865;53.114;9.130;2022-09-03T13:36:32;1.33;;;1.17;;
5684;SDS011;2865;53.114;9.130;2022-09-03T13:38:57;2.70;;;1.20;;
5684;SDS011;2865;53.114;9.130;2022-09-03T13:41:28;1.33;;;1.23;;
5684;SDS011;2865;53.114;9.130;2022-09-03T13:44:06;5.47;;;1.93;;
5684;SDS011;2865;53.114;9.130;2022-09-03T13:51:55;1.13;;;1.03;;
5684;SDS011;2865;53.114;9.130;2022-09-03T13:54:25;3.40;;;1.00;;
5684;SDS011;2865;53.114;9.130;2022-09-03T13:57:57;4.10;;;1.17;;
5684;SDS011;2865;53.114;9.130;2022-09-03T13:59:50;2.40;;;1.70;;
5684;SDS011;2865;53.114;9.130;2022-09-03T14:02:17;5.73;;;1.10;;
5684;SDS011;2865;53.114;9.130;2022-09-03T14:04:46;1.27;;;1.03;;
5684;SDS011;2865;53.114;9.130;2022-09-03T14:10:15;1.13;;;1.03;;
5684;SDS011;2865;53.114;9.130;2022-09-03T14:12:48;1.53;;;1.40;;
5684;SDS011;2865;53.114;9.130;2022-09-03T14:15:16;1.40;;;1.30;;
5684;SDS011;2865;53.114;9.130;2022-09-03T14:17:55;1.33;;;1.23;;
5684;SDS011;2865;53.114;9.130;2022-09-03T14:20:21;3.03;;;1.43;;
5684;SDS011;2865;53.114;9.130;2022-09-03T14:22:52;1.00;;;0.90;;
5684;SDS011;2865;53.114;9.130;2022-09-03T14:25:22;1.23;;;1.10;;
5684;SDS011;2865;53.114;9.130;2022-09-03T14:27:47;1.20;;;1.03;;
5684;SDS011;2865;53.114;9.130;2022-09-03T14:30:19;1.47;;;1.33;;
5684;SDS011;2865;53.114;9.130;2022-09-03T14:32:58;3.43;;;1.20;;
5684;SDS011;2865;53.114;9.130;2022-09-03T14:38:30;2.00;;;1.03;;
5684;SDS011;2865;53.114;9.130;2022-09-03T14:41:02;1.30;;;1.17;;
5684;SDS011;2865;53.114;9.130;2022-09-03T14:47:29;1.83;;;1.70;;
5684;SDS011;2865;53.114;9.130;2022-09-03T14:52:14;1.30;;;1.20;;
5684;SDS011;2865;53.114;9.130;2022-09-03T14:54:50;2.87;;;1.13;;
5684;SDS011;2865;53.114;9.130;2022-09-03T14:57:21;1.90;;;1.30;;
5684;SDS011;2865;53.114;9.130;2022-09-03T15:05:14;1.50;;;1.40;;
5684;SDS011;2865;53.114;9.130;2022-09-03T15:07:58;4.03;;;1.47;;
5684;SDS011;2865;53.114;9.130;2022-09-03T15:13:11;1.73;;;1.23;;
5684;SDS011;2865;53.114;9.130;2022-09-03T15:18:31;4.23;;;1.50;;
5684;SDS011;2865;53.114;9.130;2022-09-03T15:20:57;2.13;;;1.10;;
5684;SDS011;2865;53.114;9.130;2022-09-03T15:23:24;1.30;;;1.20;;
5684;SDS011;2865;53.114;9.130;2022-09-03T15:26:59;1.43;;;1.33;;
5684;SDS011;2865;53.114;9.130;2022-09-03T15:31:26;1.73;;;1.47;;
5684;SDS011;2865;53.114;9.130;2022-09-03T15:33:56;2.63;;;1.40;;
5684;SDS011;2865;53.114;9.130;2022-09-03T15:39:08;8.70;;;1.50;;
5684;SDS011;2865;53.114;9.130;2022-09-03T15:41:39;3.47;;;1.10;;
5684;SDS011;2865;53.114;9.130;2022-09-03T15:44:02;1.10;;;1.07;;
5684;SDS011;2865;53.114;9.130;2022-09-03T15:47:02;2.27;;;1.20;;
5684;SDS011;2865;53.114;9.130;2022-09-03T15:49:15;1.80;;;1.20;;
5684;SDS011;2865;53.114;9.130;2022-09-03T15:51:42;2.93;;;1.30;;
5684;SDS011;2865;53.114;9.130;2022-09-03T15:54:09;1.43;;;1.33;;
5684;SDS011;2865;53.114;9.130;2022-09-03T15:56:38;2.23;;;1.20;;
5684;SDS011;2865;53.114;9.130;2022-09-03T15:59:11;2.03;;;1.40;;
5684;SDS011;2865;53.114;9.130;2022-09-03T16:01:58;1.80;;;1.30;;
5684;SDS011;2865;53.114;9.130;2022-09-03T16:04:26;1.40;;;1.30;;
5684;SDS011;2865;53.114;9.130;2022-09-03T16:06:54;2.00;;;1.20;;
5684;SDS011;2865;53.114;9.130;2022-09-03T16:12:04;2.60;;;1.33;;
5684;SDS011;2865;53.114;9.130;2022-09-03T16:14:33;2.17;;;1.57;;
5684;SDS011;2865;53.114;9.130;2022-09-03T16:17:03;5.20;;;1.70;;
5684;SDS011;2865;53.114;9.130;2022-09-03T16:19:30;1.50;;;1.33;;
5684;SDS011;2865;53.114;9.130;2022-09-03T16:22:06;2.10;;;1.23;;
5684;SDS011;2865;53.114;9.130;2022-09-03T16:24:46;14.87;;;1.73;;
5684;SDS011;2865;53.114;9.130;2022-09-03T16:27:16;2.20;;;1.63;;
5684;SDS011;2865;53.114;9.130;2022-09-03T16:29:55;2.53;;;1.57;;
5684;SDS011;2865;53.114;9.130;2022-09-03T16:32:28;1.77;;;1.67;;
5684;SDS011;2865;53.114;9.130;2022-09-03T16:34:56;2.10;;;1.70;;
5684;SDS011;2865;53.114;9.130;2022-09-03T16:39:54;2.40;;;1.80;;
5684;SDS011;2865;53.114;9.130;2022-09-03T16:42:36;12.73;;;1.53;;
5684;SDS011;2865;53.114;9.130;2022-09-03T16:45:16;1.33;;;1.23;;
5684;SDS011;2865;53.114;9.130;2022-09-03T16:47:56;1.43;;;1.30;;
5684;SDS011;2865;53.114;9.130;2022-09-03T16:50:27;1.97;;;1.50;;
5684;SDS011;2865;53.114;9.130;2022-09-03T16:54:00;4.70;;;2.17;;
5684;SDS011;2865;53.114;9.130;2022-09-03T16:58:36;2.30;;;1.90;;